Latest Weather Observations for Coolangatta

IDQ60801

Issued at 8:03 pm EST Saturday 25 June 2016 (issued every 30 minutes, with the page automatically refreshed every 10 minutes)

About weather observations | Map of weather stations | Latest weather observations for QLD | Other Formats
Station Details ID: 040717 Name: COOLANGATTA Lat: -28.17 Lon: 153.51 Height: 4.0 m
Data from the previous 72 hours. | See also: Recent months at Coolangatta
Date/Time
EST
Temp
°C
App
Temp
°C
Dew
Point
°C
Rel
Hum
%
Delta-T
°C
Wind Press
QNH
hPa
Press
MSL
hPa
Rain since
9am
mm
Dir  Spd
km/h
Gust
km/h
Spd
kts
Gust
kts
25/08:00pm 7.6 6.0 4.4 80 1.4 SW 2 7 1 4 1019.6 1019.6 0.0
25/07:30pm 8.0 5.1 4.6 79 1.5 SW 9 13 5 7 1019.4 1019.4 0.0
25/07:00pm 8.3 5.0 4.7 78 1.6 SW 11 15 6 8 1019.1 1019.1 0.0
25/06:30pm 8.5 6.0 4.7 77 1.7 WSW 7 9 4 5 1018.8 1018.8 0.0
25/06:00pm 8.4 5.9 4.0 74 1.9 SW 6 7 3 4 1018.4 1018.4 0.0
25/05:30pm 9.4 6.9 4.0 69 2.4 SSW 6 7 3 4 1018.1 1018.1 0.0
25/05:00pm 13.3 10.1 1.0 43 5.2 S 7 9 4 5 1017.7 1017.7 0.0
25/04:30pm 14.6 10.5 0.1 37 6.1 S 11 15 6 8 1017.3 1017.3 0.0
25/04:00pm 15.8 11.2 -0.8 32 6.9 S 13 17 7 9 1017.1 1017.1 0.0
25/03:30pm 16.4 11.7 -1.7 29 7.5 SSW 13 19 7 10 1016.9 1016.9 0.0
25/03:00pm 17.0 11.3 -1.1 29 7.6 S 19 26 10 14 1016.8 1016.8 0.0
25/02:30pm 17.0 12.1 -0.7 30 7.5 SSE 15 22 8 12 1016.6 1016.6 0.0
25/02:00pm 17.2 13.0 -1.0 29 7.7 SSE 11 24 6 13 1016.6 1016.6 0.0
25/01:30pm 16.8 11.8 -1.3 29 7.6 SSE 15 22 8 12 1016.8 1016.8 0.0
25/01:00pm 16.9 11.8 -2.2 27 7.8 S 15 22 8 12 1016.9 1016.9 0.0
25/12:30pm 16.3 11.0 -3.7 25 7.9 SSW 15 20 8 11 1017.2 1017.2 0.0
25/12:00pm 16.4 10.7 -3.7 25 7.9 S 17 28 9 15 1017.5 1017.5 0.0
25/11:30am 16.7 11.1 -2.9 26 7.9 SSW 17 30 9 16 1017.8 1017.8 0.0
25/11:00am 15.7 9.4 -3.7 26 7.6 SSW 20 32 11 17 1017.9 1017.9 0.0
25/10:30am 15.5 9.4 -2.0 30 7.1 SW 20 30 11 16 1017.9 1017.9 0.0
25/10:00am 15.2 9.7 -1.8 31 6.9 SSW 17 26 9 14 1018.0 1018.0 0.0
25/09:30am 14.7 11.3 -0.6 35 6.4 WSW 7 11 4 6 1018.0 1018.0 0.0
25/09:00am 14.2 11.4 2.1 44 5.3 WNW 6 9 3 5 1017.8 1017.8 -
25/08:30am 12.5 9.5 1.8 48 4.6 WSW 7 9 4 5 1017.5 1017.5 -
25/08:00am 11.0 7.1 3.3 59 3.4 WSW 13 15 7 8 1017.2 1017.2 -
25/07:30am 9.4 5.3 2.5 62 2.9 WSW 13 19 7 10 1017.2 1017.2 -
25/07:00am 8.0 4.2 2.0 66 2.5 W 11 13 6 7 1016.8 1016.8 -
25/06:30am 8.9 5.7 0.9 57 3.2 WSW 7 11 4 6 1016.5 1016.5 -
25/06:00am 9.7 6.7 1.8 58 3.3 SW 7 11 4 6 1016.4 1016.4 -
25/05:30am 10.3 7.1 0.9 52 3.9 S 7 9 4 5 1016.0 1016.0 -
25/05:00am 11.0 6.7 1.0 50 4.1 SSE 13 22 7 12 1015.6 1015.6 -
25/04:30am 10.1 6.3 1.5 55 3.6 S 11 15 6 8 1014.8 1014.8 -
25/04:00am 11.6 7.0 1.8 51 4.2 SSE 15 20 8 11 1014.4 1014.4 -
25/03:30am 11.2 6.9 1.2 50 4.2 S 13 19 7 10 1014.3 1014.3 -
25/03:00am 13.5 7.9 0.9 42 5.3 SW 20 30 11 16 1013.6 1013.6 -
25/02:30am 13.7 8.1 1.0 42 5.4 SW 20 33 11 18 1013.8 1013.8 -
25/02:00am 14.0 8.3 0.6 40 5.7 SSW 20 32 11 17 1013.5 1013.5 -
25/01:30am 14.0 7.9 0.6 40 5.7 SSW 22 37 12 20 1013.2 1013.2 -
25/01:00am 14.4 8.7 0.6 39 5.9 SSW 20 30 11 16 1013.1 1013.1 -
25/12:30am 14.5 8.5 1.1 40 5.8 SSW 22 32 12 17 1012.8 1012.8 -
25/12:00am 14.0 9.4 1.3 42 5.5 S 15 24 8 13 1012.5 1012.5 -
 
Date/Time
EST
Temp
°C
App
Temp
°C
Dew
Point
°C
Rel
Hum
%
Delta-T
°C
Wind Press
QNH
hPa
Press
MSL
hPa
Rain since
9am
mm
Dir  Spd
km/h
Gust
km/h
Spd
kts
Gust
kts
24/11:30pm 12.8 9.4 1.8 47 4.7 ESE 9 15 5 8 1012.2 1012.2 -
24/11:00pm 13.8 10.4 1.8 44 5.2 SW 9 17 5 9 1011.5 1011.5 -
24/10:30pm 13.6 10.0 2.8 48 4.8 ESE 11 15 6 8 1011.3 1011.3 -
24/10:00pm 14.1 11.4 3.8 50 4.7 ESE 7 11 4 6 1011.1 1011.1 -
24/09:30pm 16.4 12.4 3.1 41 6.1 W 13 26 7 14 1010.7 1010.7 -
24/09:15pm 16.3 12.4 3.4 42 5.9 W 13 22 7 12 1010.5 1010.5 -
24/09:14pm 8.5 5.5 7.6 94 0.4 W 13 24 7 13 1012.4 1012.4 -
24/09:00pm 16.5 11.2 3.2 41 6.1 WNW 20 30 11 16 1010.5 1010.5 0.2
24/08:30pm 17.0 11.3 3.0 39 6.4 WNW 22 32 12 17 1010.3 1010.3 0.2
24/08:00pm 17.3 11.5 4.3 42 6.1 WNW 24 39 13 21 1010.2 1010.2 0.2
24/07:30pm 17.4 12.1 5.0 44 5.9 WNW 22 35 12 19 1010.2 1010.2 0.2
24/07:00pm 18.6 12.4 4.4 39 6.8 W 26 41 14 22 1009.9 1009.9 0.2
24/06:30pm 19.3 14.2 6.1 42 6.5 W 22 37 12 20 1009.7 1009.7 0.2
24/06:00pm 19.9 16.4 7.3 44 6.4 W 15 30 8 16 1009.3 1009.3 0.2
24/05:30pm 20.2 15.9 7.2 43 6.6 WSW 19 32 10 17 1008.4 1008.4 0.2
24/05:00pm 20.8 14.4 8.4 45 6.5 W 32 61 17 33 1007.4 1007.4 0.2
24/04:30pm 21.7 15.7 10.2 48 6.3 W 32 54 17 29 1007.0 1007.0 0.2
24/04:12pm 22.1 16.2 10.6 48 6.3 WNW 32 50 17 27 1007.0 1007.0 0.2
24/04:00pm 22.4 16.4 10.2 46 6.7 WNW 32 44 17 24 1006.8 1006.8 0.2
24/03:35pm 23.0 18.0 10.8 46 6.7 WNW 28 46 15 25 1006.6 1006.6 0.2
24/03:30pm 23.0 18.8 11.1 47 6.6 WNW 24 39 13 21 1006.8 1006.8 0.2
24/03:01pm 23.2 18.1 10.6 45 7.0 WNW 28 46 15 25 1006.5 1006.5 0.2
24/03:00pm 23.4 18.6 11.5 47 6.7 WNW 28 44 15 24 1006.6 1006.6 0.2
24/02:30pm 23.7 19.2 11.4 46 6.9 WNW 26 37 14 20 1006.5 1006.5 0.2
24/02:01pm 23.7 18.8 11.4 46 6.9 WNW 28 50 15 27 1006.6 1006.6 0.2
24/02:00pm 23.5 18.9 10.9 45 7.0 WNW 26 50 14 27 1006.6 1006.6 0.2
24/01:30pm 23.8 20.1 11.5 46 6.9 WNW 22 35 12 19 1006.7 1006.7 0.2
24/01:00pm 23.6 18.1 12.0 48 6.6 W 32 43 17 23 1007.0 1007.0 0.2
24/12:43pm 23.3 18.5 11.7 48 6.5 WNW 28 48 15 26 1007.2 1007.2 0.2
24/12:30pm 23.5 19.3 13.4 53 5.9 WNW 28 43 15 23 1007.5 1007.5 0.2
24/12:00pm 22.9 19.7 13.1 54 5.7 WNW 22 39 12 21 1008.2 1008.2 0.2
24/11:30am 22.1 18.9 13.2 57 5.1 WNW 22 43 12 23 1008.8 1008.8 0.2
24/11:00am 22.0 18.8 13.1 57 5.1 WNW 22 33 12 18 1009.5 1009.5 0.2
24/10:30am 21.5 18.4 13.4 60 4.7 NW 22 32 12 17 1010.0 1010.0 0.2
24/10:00am 20.8 17.3 13.5 63 4.2 NW 24 39 13 21 1010.3 1010.3 0.0
24/09:30am 19.7 16.5 13.2 66 3.7 WNW 22 33 12 18 1010.6 1010.6 0.0
24/09:00am 18.4 15.1 12.8 70 3.1 NW 22 32 12 17 1010.7 1010.7 0.2
24/08:30am 18.5 14.8 12.7 69 3.2 NW 24 33 13 18 1010.6 1010.6 0.2
24/08:00am 18.7 14.9 12.5 67 3.5 WNW 24 37 13 20 1010.2 1010.2 0.2
24/07:30am 18.7 14.5 12.5 67 3.5 NW 26 43 14 23 1010.1 1010.1 0.2
24/07:00am 19.0 15.2 12.3 65 3.7 WNW 24 35 13 19 1010.2 1010.2 0.2
24/06:30am 17.9 15.0 12.4 70 3.0 NW 19 26 10 14 1010.1 1010.1 0.2
24/06:00am 17.5 14.4 12.2 71 2.9 NW 20 28 11 15 1009.8 1009.8 0.2
24/05:30am 17.4 14.5 12.3 72 2.8 NW 19 26 10 14 1009.8 1009.8 0.2
24/05:00am 17.5 15.0 12.2 71 2.9 NW 17 26 9 14 1009.7 1009.7 0.2
24/04:30am 17.3 14.8 12.2 72 2.8 NW 17 28 9 15 1009.6 1009.6 0.2
24/04:00am 16.4 13.9 12.4 77 2.2 NNW 17 20 9 11 1010.1 1010.1 0.2
24/03:30am 16.3 14.2 12.3 77 2.2 NNW 15 20 8 11 1010.3 1010.3 0.2
24/03:00am 16.6 15.2 12.2 75 2.4 NNW 11 17 6 9 1010.7 1010.7 0.2
24/02:30am 16.5 13.6 12.3 76 2.3 NW 19 26 10 14 1010.5 1010.5 0.2
24/02:00am 16.6 14.1 12.2 75 2.4 NW 17 24 9 13 1010.7 1010.7 0.2
24/01:30am 16.6 13.1 12.2 75 2.4 NW 22 32 12 17 1011.3 1011.3 0.2
24/01:00am 16.5 13.5 12.5 77 2.2 NNW 20 28 11 15 1011.8 1011.8 0.2
24/12:30am 16.2 13.2 12.4 78 2.1 NNW 20 28 11 15 1011.4 1011.4 0.2
24/12:00am 16.4 13.4 12.4 77 2.2 NNW 20 30 11 16 1011.9 1011.9 0.2
 
Date/Time
EST
Temp
°C
App
Temp
°C
Dew
Point
°C
Rel
Hum
%
Delta-T
°C
Wind Press
QNH
hPa
Press
MSL
hPa
Rain since
9am
mm
Dir  Spd
km/h
Gust
km/h
Spd
kts
Gust
kts
23/11:30pm 16.5 13.4 12.3 76 2.3 NNW 20 33 11 18 1012.2 1012.2 0.2
23/11:00pm 16.4 13.2 12.0 75 2.4 NNW 20 26 11 14 1011.9 1011.9 0.2
23/10:30pm 16.7 13.5 12.0 74 2.6 NNW 20 26 11 14 1012.5 1012.5 0.2
23/10:00pm 16.5 14.2 11.6 73 2.7 NNW 15 20 8 11 1012.4 1012.4 0.2
23/09:30pm 16.3 13.6 11.7 74 2.5 NNW 17 22 9 12 1012.7 1012.7 0.2
23/09:00pm 15.5 14.9 11.7 78 2.1 WNW 6 9 3 5 1012.4 1012.4 0.2
23/08:30pm 15.9 15.3 11.7 76 2.3 WNW 6 11 3 6 1012.3 1012.3 0.2
23/08:00pm 15.9 14.3 11.5 75 2.4 N 11 15 6 8 1012.3 1012.3 0.2
23/07:30pm 15.5 14.0 11.9 79 2.0 N 11 15 6 8 1012.4 1012.4 0.2
23/07:00pm 15.8 14.7 11.8 77 2.2 NW 9 11 5 6 1012.5 1012.5 0.2
23/06:30pm 15.3 14.2 11.9 80 1.8 NNW 9 13 5 7 1012.1 1012.1 0.2
23/06:00pm 15.2 16.1 12.9 86 1.3 CALM 0 0 0 0 1012.1 1012.1 0.2
23/05:30pm 15.4 15.2 13.6 89 1.0 WSW 7 9 4 5 1012.0 1012.0 0.2
23/05:00pm 15.5 15.4 13.2 86 1.3 NNW 6 9 3 5 1011.9 1011.9 0.2
23/04:30pm 15.8 15.9 13.8 88 1.1 WNW 6 7 3 4 1011.9 1011.9 0.2
23/04:00pm 16.1 16.1 13.6 85 1.4 NNW 6 7 3 4 1012.0 1012.0 0.2
23/03:30pm 16.1 16.9 12.7 80 1.9 CALM 0 0 0 0 1011.9 1011.9 0.2
23/03:00pm 16.1 17.0 12.8 81 1.8 CALM 0 4 0 2 1012.2 1012.2 0.2
23/02:30pm 16.4 17.3 12.9 80 1.9 CALM 0 0 0 0 1012.2 1012.2 0.2
23/02:00pm 16.6 16.4 11.7 73 2.7 S 4 6 2 3 1012.3 1012.3 0.2
23/01:30pm 16.6 16.3 11.3 71 2.9 SW 4 7 2 4 1012.9 1012.9 0.2
23/01:00pm 16.7 17.6 12.8 78 2.2 CALM 0 0 0 0 1012.9 1012.9 0.2
23/12:30pm 16.3 15.8 12.5 78 2.1 SE 7 7 4 4 1013.6 1013.6 0.2
23/12:00pm 16.1 16.0 12.1 77 2.2 W 4 7 2 4 1014.0 1014.0 0.2
23/11:30am 15.8 16.0 13.1 84 1.5 S 4 9 2 5 1014.2 1014.2 0.2
23/11:00am 15.7 16.0 13.4 86 1.3 SSW 4 9 2 5 1014.4 1014.4 0.2
23/10:30am 15.6 15.2 12.5 82 1.7 NW 6 9 3 5 1014.8 1014.8 0.2
23/10:00am 14.9 14.7 12.9 88 1.1 WSW 6 7 3 4 1015.3 1015.3 0.2
23/09:30am 14.7 14.3 12.4 86 1.3 SW 6 7 3 4 1015.4 1015.4 0.2
23/09:00am 14.4 14.7 12.1 86 1.2 SSW 2 7 1 4 1015.4 1015.4 0.0
23/08:30am 14.3 14.1 11.8 85 1.3 WSW 4 7 2 4 1015.1 1015.1 0.0
23/08:00am 13.9 14.5 11.8 87 1.1 CALM 0 6 0 3 1014.7 1014.7 0.0
23/07:30am 13.2 12.6 11.6 90 0.9 WSW 6 7 3 4 1014.7 1014.7 0.0
23/07:00am 13.1 12.0 12.0 93 0.6 WSW 9 13 5 7 1014.4 1014.4 0.0
23/06:30am 12.5 12.5 11.1 91 0.7 NNW 2 7 1 4 1014.3 1014.3 0.0
23/06:00am 12.7 13.1 11.3 91 0.7 CALM 0 0 0 0 1014.8 1014.8 0.0
23/05:30am 12.8 12.2 11.7 93 0.6 WSW 6 7 3 4 1014.4 1014.4 0.0
23/05:00am 12.9 13.5 11.8 93 0.6 CALM 0 0 0 0 1013.7 1013.7 0.0
23/04:30am 13.0 13.5 11.7 92 0.7 CALM 0 0 0 0 1013.2 1013.2 0.0
23/04:00am 13.3 12.8 11.9 91 0.7 SSE 6 7 3 4 1013.5 1013.5 0.0
23/03:30am 13.2 12.4 11.8 91 0.7 SW 7 7 4 4 1013.1 1013.1 0.0
23/03:00am 13.0 12.7 11.4 90 0.8 WNW 4 7 2 4 1012.7 1012.7 0.0
23/02:30am 13.2 12.9 11.4 89 1.0 SSE 4 7 2 4 1012.5 1012.5 0.0
23/02:00am 13.7 12.5 11.6 87 1.1 SW 9 11 5 6 1013.0 1013.0 0.0
23/01:30am 13.6 13.0 11.8 89 1.0 SSW 6 9 3 5 1012.6 1012.6 0.0
23/01:00am 13.9 13.3 11.8 87 1.1 WSW 6 6 3 3 1013.0 1013.0 0.0
23/12:30am 14.1 13.4 12.0 87 1.1 W 7 9 4 5 1013.8 1013.8 0.0
23/12:00am 14.1 13.0 11.8 86 1.2 SW 9 15 5 8 1013.4 1013.4 0.0
 
Date/Time
EST
Temp
°C
App
Temp
°C
Dew
Point
°C
Rel
Hum
%
Delta-T
°C
Wind Press
QNH
hPa
Press
MSL
hPa
Rain since
9am
mm
Dir  Spd
km/h
Gust
km/h
Spd
kts
Gust
kts
22/11:30pm 13.8 13.3 12.0 89 1.0 W 6 9 3 5 1012.8 1012.8 0.0
22/11:00pm 13.7 14.3 11.9 89 1.0 CALM 0 9 0 5 1013.1 1013.1 0.0
22/10:30pm 14.0 14.2 12.0 88 1.1 S 2 7 1 4 1013.1 1013.1 0.0
22/10:00pm 14.8 14.3 12.1 84 1.5 WSW 6 11 3 6 1013.3 1013.3 0.0
22/09:30pm 14.8 14.8 12.3 85 1.4 NNW 4 7 2 4 1013.1 1013.1 0.0
22/09:00pm 14.9 14.8 12.2 84 1.5 SSE 4 9 2 5 1013.2 1013.2 0.0
22/08:30pm 15.6 15.3 11.4 76 2.3 WSW 4 7 2 4 1013.2 1013.2 0.0

Other Formats:

Comma delimited format used in spreadsheet applications
http://www.bom.gov.au/fwo/IDQ60801/IDQ60801.94592.axf

JavaScript Object Notation format (JSON) in row-major order
http://www.bom.gov.au/fwo/IDQ60801/IDQ60801.94592.json